Time;durP1;ratioP1;P1;durP2;ratioP2;P2;SDS_P1;SDS_P2;PMS_P1;PMS_P2;Temp;Humidity;BMP_temperature;BMP_pressure;BME280_temperature;BME280_humidity;BME280_pressure;Samples;Min_cycle;Max_cycle;Signal;HPM_P1;HPM_P2
2023/09/15 00:02:30;;;;;;;1.60;1.20;;;;;;;11.77;nan;100372.19;10504362;28;20551;-62
2023/09/15 00:07:32;;;;;;;4.50;1.40;;;;;;;11.78;nan;100360.78;10506225;28;20178;-62
2023/09/15 00:12:35;;;;;;;3.33;1.30;;;;;;;11.77;nan;100361.69;10504895;28;20793;-62
2023/09/15 00:17:39;;;;;;;2.08;1.38;;;;;;;11.78;nan;100360.78;10508963;28;20135;-61
2023/09/15 00:22:50;;;;;;;47.00;2.60;;;;;;;11.74;nan;100367.97;10510468;28;20415;-62
2023/09/15 00:27:57;;;;;;;3.58;1.50;;;;;;;11.75;nan;100359.19;10504342;28;20039;-62
2023/09/15 00:32:59;;;;;;;1.30;1.10;;;;;;;11.79;nan;100359.84;10528439;27;20075;-62
2023/09/15 00:38:03;;;;;;;15.77;1.80;;;;;;;11.74;nan;100354.03;10511910;28;20250;-62
2023/09/15 00:43:05;;;;;;;2.92;1.20;;;;;;;11.59;nan;100349.66;10512511;28;20043;-62
2023/09/15 00:48:08;;;;;;;78.47;3.28;;;;;;;11.59;nan;100352.28;10494711;28;20423;-61
2023/09/15 00:53:16;;;;;;;6.45;1.35;;;;;;;11.58;nan;100356.66;10516581;28;20051;-62
2023/09/15 00:58:19;;;;;;;5.82;1.50;;;;;;;11.61;nan;100346.03;10513620;28;20631;-62
2023/09/15 01:03:22;;;;;;;5.07;1.13;;;;;;;11.66;nan;100343.97;10508175;28;20036;-62
2023/09/15 01:08:24;;;;;;;8.52;1.50;;;;;;;11.57;nan;100339.28;10518141;28;20154;-62
2023/09/15 01:13:26;;;;;;;4.20;1.15;;;;;;;11.60;nan;100338.25;10515575;28;20075;-62
2023/09/15 01:18:50;;;;;;;9.93;1.27;;;;;;;11.65;nan;100346.69;10514376;28;20546;-62
2023/09/15 01:24:04;;;;;;;16.10;1.50;;;;;;;11.65;nan;100336.22;10519250;28;20044;-62
2023/09/15 01:29:14;;;;;;;3.33;1.65;;;;;;;11.61;nan;100335.56;10516760;28;20131;-62
2023/09/15 01:34:19;;;;;;;18.73;1.50;;;;;;;11.57;nan;100334.03;10508523;28;20032;-62
2023/09/15 01:39:21;;;;;;;6.60;2.03;;;;;;;11.49;nan;100324.91;10517417;28;20405;-62
2023/09/15 01:44:23;;;;;;;6.28;1.10;;;;;;;11.45;nan;100326.03;10509761;28;20135;-62
2023/09/15 01:49:27;;;;;;;9.30;1.33;;;;;;;11.46;nan;100323.31;10517741;28;20438;-62
2023/09/15 01:54:29;;;;;;;18.55;1.70;;;;;;;11.37;nan;100330.84;10510451;28;20511;-62
2023/09/15 01:59:32;;;;;;;97.10;4.72;;;;;;;11.31;nan;100329.44;10512293;28;20119;-62
2023/09/15 02:04:35;;;;;;;27.85;1.85;;;;;;;11.26;nan;100331.47;10515583;28;20051;-61
2023/09/15 02:09:38;;;;;;;7.70;1.75;;;;;;;11.27;nan;100320.06;10519023;28;20072;-62
2023/09/15 02:14:40;;;;;;;1.90;1.15;;;;;;;11.23;nan;100322.00;10515361;28;20036;-62
2023/09/15 02:19:43;;;;;;;5.93;1.63;;;;;;;11.17;nan;100322.34;10518195;28;20095;-62
2023/09/15 02:24:45;;;;;;;14.48;1.55;;;;;;;11.13;nan;100320.81;10520069;28;20279;-62
2023/09/15 02:29:47;;;;;;;22.60;2.20;;;;;;;11.20;nan;100322.19;10532417;28;20487;-62
2023/09/15 02:34:51;;;;;;;11.93;1.67;;;;;;;11.16;nan;100318.06;10517243;28;20088;-62
2023/09/15 02:39:53;;;;;;;48.22;2.67;;;;;;;11.06;nan;100324.72;10516357;28;20047;-61
2023/09/15 02:44:55;;;;;;;37.50;2.53;;;;;;;10.96;nan;100320.03;10513251;28;20306;-62
2023/09/15 02:49:58;;;;;;;52.17;3.90;;;;;;;10.96;nan;100326.13;10520273;28;20043;-62
2023/09/15 02:55:01;;;;;;;0.85;0.80;;;;;;;10.99;nan;100325.13;10524180;28;20036;-62
2023/09/15 03:00:07;;;;;;;5.22;1.38;;;;;;;11.17;nan;100318.91;10516840;28;20028;-62
2023/09/15 03:05:10;;;;;;;42.35;2.22;;;;;;;10.99;nan;100315.47;10539703;27;20082;-62
2023/09/15 03:10:12;;;;;;;39.60;2.33;;;;;;;11.07;nan;100313.31;10522512;28;20040;-62
2023/09/15 03:15:15;;;;;;;5.53;1.33;;;;;;;11.09;nan;100306.22;10512508;28;20067;-59
2023/09/15 03:20:19;;;;;;;18.70;1.70;;;;;;;11.03;nan;100306.53;10489090;28;20044;-62
2023/09/15 03:25:22;;;;;;;4.57;1.23;;;;;;;10.95;nan;100308.72;10511356;28;20066;-62
2023/09/15 03:30:24;;;;;;;4.35;1.05;;;;;;;10.97;nan;100301.63;10496469;28;20438;-61
2023/09/15 03:35:26;;;;;;;21.27;1.90;;;;;;;10.88;nan;100307.41;10509927;28;20071;-61
2023/09/15 03:40:30;;;;;;;24.95;2.25;;;;;;;10.90;nan;100294.22;10509561;28;20495;-62
2023/09/15 03:45:34;;;;;;;4.65;1.30;;;;;;;11.15;nan;100299.81;10517103;28;20070;-62
2023/09/15 03:50:36;;;;;;;47.60;2.05;;;;;;;11.23;nan;100303.66;10518419;28;20578;-62
2023/09/15 03:55:39;;;;;;;20.17;2.03;;;;;;;11.18;nan;100291.78;10515140;28;20673;-62
2023/09/15 04:00:41;;;;;;;51.90;3.55;;;;;;;11.19;nan;100306.56;10510092;28;20411;-62
2023/09/15 04:05:43;;;;;;;7.55;2.00;;;;;;;11.13;nan;100291.22;10517137;28;20040;-62
2023/09/15 04:10:45;;;;;;;3.45;1.08;;;;;;;11.04;nan;100292.56;10516175;28;20138;-61
2023/09/15 04:15:47;;;;;;;7.75;1.52;;;;;;;11.17;nan;100295.34;10514595;28;20048;-62
2023/09/15 04:20:50;;;;;;;29.10;1.92;;;;;;;11.30;nan;100298.94;10534433;27;20051;-62
2023/09/15 04:25:52;;;;;;;43.75;2.05;;;;;;;11.42;nan;100306.09;10510578;28;20428;-62
2023/09/15 04:30:54;;;;;;;29.13;2.28;;;;;;;11.51;nan;100296.88;10501004;28;20066;-61
2023/09/15 04:35:57;;;;;;;4.35;1.70;;;;;;;11.24;nan;100300.13;10512796;28;20039;-62
2023/09/15 04:40:59;;;;;;;41.78;2.20;;;;;;;11.07;nan;100305.47;10516454;28;20123;-62
2023/09/15 04:46:01;;;;;;;1.65;1.20;;;;;;;10.92;nan;100303.69;10513431;28;20396;-62
2023/09/15 04:51:04;;;;;;;4.70;1.30;;;;;;;11.16;nan;100301.50;10530013;27;20040;-62
2023/09/15 04:56:06;;;;;;;30.80;1.88;;;;;;;11.24;nan;100309.75;10512621;28;20040;-62
2023/09/15 05:01:08;;;;;;;11.75;1.60;;;;;;;11.14;nan;100309.44;10501283;28;20062;-61
2023/09/15 05:06:11;;;;;;;8.23;1.30;;;;;;;11.11;nan;100312.22;10514702;28;20105;-62
2023/09/15 05:11:14;;;;;;;1.65;1.10;;;;;;;11.31;nan;100311.13;10524781;28;20510;-62
2023/09/15 05:16:17;;;;;;;3.17;1.58;;;;;;;11.24;nan;100312.38;10516755;28;20047;-61
2023/09/15 05:21:20;;;;;;;3.92;1.73;;;;;;;11.30;nan;100309.41;10521123;28;20071;-62
2023/09/15 05:26:23;;;;;;;3.85;1.40;;;;;;;11.37;nan;100315.16;10521652;28;20065;-62
2023/09/15 05:31:28;;;;;;;6.35;1.88;;;;;;;11.46;nan;100319.88;10512171;28;20051;-62
2023/09/15 05:36:30;;;;;;;2.95;1.60;;;;;;;11.49;nan;100317.91;10510092;28;20126;-62
2023/09/15 05:41:32;;;;;;;3.55;1.60;;;;;;;11.34;nan;100320.56;10516171;28;20040;-62
2023/09/15 05:46:35;;;;;;;9.90;2.00;;;;;;;11.22;nan;100312.47;10533169;27;20086;-62
2023/09/15 05:51:37;;;;;;;7.85;1.58;;;;;;;11.18;nan;100310.97;10515858;28;20518;-62
2023/09/15 05:56:39;;;;;;;2.80;1.70;;;;;;;11.39;nan;100311.53;10513805;28;20908;-62
2023/09/15 06:01:46;;;;;;;3.80;1.67;;;;;;;11.59;nan;100316.47;10509766;28;20349;-62
2023/09/15 06:06:49;;;;;;;2.53;1.40;;;;;;;11.74;nan;100312.09;10510605;28;20044;-62
2023/09/15 06:11:51;;;;;;;4.25;1.70;;;;;;;11.80;nan;100306.50;10519801;28;20052;-62
2023/09/15 06:16:53;;;;;;;63.35;2.85;;;;;;;11.69;nan;100317.59;10512162;28;20542;-62
2023/09/15 06:21:55;;;;;;;20.52;3.00;;;;;;;11.59;nan;100312.97;10511956;28;20475;-62
2023/09/15 06:26:58;;;;;;;5.78;2.20;;;;;;;11.67;nan;100303.75;10508298;28;20178;-62
2023/09/15 06:32:00;;;;;;;3.72;1.65;;;;;;;11.94;nan;100319.63;10523300;28;20082;-62
2023/09/15 06:37:02;;;;;;;5.07;1.60;;;;;;;12.13;nan;100307.09;10516490;28;20588;-62
2023/09/15 06:42:08;;;;;;;4.93;1.70;;;;;;;11.87;nan;100311.28;10508641;28;20040;-62
2023/09/15 06:47:14;;;;;;;;;;;;;;;11.98;nan;100319.38;10510687;28;20047;-62
2023/09/15 06:52:16;;;;;;;3.78;1.77;;;;;;;12.33;nan;100322.53;10513697;28;20094;-62
2023/09/15 06:57:18;;;;;;;8.93;1.95;;;;;;;12.47;nan;100319.06;10511710;28;20046;-62
2023/09/15 07:02:21;;;;;;;4.35;1.60;;;;;;;12.37;nan;100315.31;10505913;28;20047;-62
2023/09/15 07:07:23;;;;;;;3.40;2.00;;;;;;;12.44;nan;100311.38;10512545;28;20051;-62
2023/09/15 07:12:25;;;;;;;4.82;2.25;;;;;;;12.68;nan;100310.69;10517318;28;20089;-62
2023/09/15 07:17:27;;;;;;;4.25;2.10;;;;;;;12.90;nan;100311.03;10513505;28;20135;-62
2023/09/15 07:27:54;;;;;;;4.38;2.17;;;;;;;12.87;62.78;100313.88;10538986;27;20175;-65
2023/09/15 07:32:56;;;;;;;3.67;2.10;;;;;;;12.91;62.44;100311.88;10541411;28;20035;-65
2023/09/15 07:37:58;;;;;;;4.88;2.25;;;;;;;12.95;62.38;100313.38;10535208;28;20103;-65
2023/09/15 07:43:01;;;;;;;8.50;3.17;;;;;;;12.93;62.41;100308.22;10520303;28;20044;-65
2023/09/15 07:48:04;;;;;;;5.03;2.33;;;;;;;13.12;62.19;100299.16;10503472;28;20163;-65
2023/09/15 07:53:06;;;;;;;7.88;2.50;;;;;;;13.44;61.56;100295.31;10540020;28;20165;-65
2023/09/15 07:58:08;;;;;;;3.83;2.28;;;;;;;13.46;61.56;100283.78;10538330;28;20044;-65
2023/09/15 08:03:10;;;;;;;5.85;2.65;;;;;;;13.64;60.84;100289.59;10535362;28;20058;-65
2023/09/15 08:08:12;;;;;;;6.43;2.47;;;;;;;13.78;60.70;100284.25;10531403;28;20043;-65
2023/09/15 08:13:14;;;;;;;6.60;2.67;;;;;;;14.29;60.06;100287.72;10537592;28;20506;-64
2023/09/15 08:18:16;;;;;;;6.40;2.45;;;;;;;15.11;58.77;100286.22;10516429;28;20047;-63
2023/09/15 08:23:18;;;;;;;9.10;2.30;;;;;;;15.63;57.96;100270.06;10537374;28;20044;-63
2023/09/15 08:28:22;;;;;;;4.05;2.22;;;;;;;15.60;57.05;100266.81;10536399;28;20151;-63
2023/09/15 08:33:24;;;;;;;4.47;2.30;;;;;;;15.12;58.10;100264.16;10496475;28;20056;-62
2023/09/15 08:38:31;;;;;;;4.78;2.30;;;;;;;14.61;58.32;100265.31;10460561;28;20436;-63
2023/09/15 08:43:34;;;;;;;5.40;2.20;;;;;;;14.38;59.34;100264.28;10507130;28;20537;-63
2023/09/15 08:48:40;;;;;;;4.43;2.40;;;;;;;14.71;58.81;100265.50;10492183;28;20043;-63
2023/09/15 08:53:43;;;;;;;4.43;2.10;;;;;;;14.73;58.69;100264.44;10505507;28;20043;-63
2023/09/15 08:58:46;;;;;;;4.53;2.30;;;;;;;15.01;58.59;100263.28;10509393;28;20624;-63
2023/09/15 09:03:48;;;;;;;4.88;2.00;;;;;;;15.23;58.24;100258.97;10500093;28;20075;-64
2023/09/15 09:08:51;;;;;;;3.47;2.00;;;;;;;15.55;57.58;100256.59;10506751;28;20049;-63
2023/09/15 09:13:53;;;;;;;4.18;1.90;;;;;;;16.00;56.76;100247.81;10500996;28;20059;-64
2023/09/15 09:19:03;;;;;;;6.20;2.17;;;;;;;16.34;55.75;100237.28;10473567;28;20082;-63
2023/09/15 09:24:07;;;;;;;5.35;1.95;;;;;;;16.70;55.51;100239.69;10481939;28;20093;-63
2023/09/15 09:29:12;;;;;;;4.13;1.70;;;;;;;17.27;54.37;100245.53;10503107;28;20358;-62
2023/09/15 09:34:18;;;;;;;2.92;1.75;;;;;;;17.45;53.97;100228.16;10501017;28;20048;-63
2023/09/15 09:39:40;;;;;;;4.07;2.05;;;;;;;17.61;53.63;100227.72;10485620;28;20228;-62
2023/09/15 09:44:42;;;;;;;3.70;1.90;;;;;;;17.87;53.00;100207.84;10479839;28;20044;-62
2023/09/15 09:49:44;;;;;;;5.38;2.25;;;;;;;18.07;52.90;100208.78;10500213;28;20407;-62
2023/09/15 09:54:50;;;;;;;5.53;2.45;;;;;;;18.11;52.02;100211.03;10504014;28;20637;-62
2023/09/15 09:59:52;;;;;;;4.82;2.17;;;;;;;18.42;52.31;100198.63;10487683;28;20780;-62
2023/09/15 10:04:56;;;;;;;3.15;1.85;;;;;;;18.60;51.74;100199.66;10486471;28;20069;-63
2023/09/15 10:09:58;;;;;;;4.80;1.85;;;;;;;18.74;52.07;100183.38;10506095;28;20048;-63
2023/09/15 10:15:03;;;;;;;5.88;2.40;;;;;;;19.07;51.56;100190.13;10479592;28;20048;-63
2023/09/15 10:20:06;;;;;;;4.70;2.10;;;;;;;19.04;51.42;100185.09;10500180;28;20046;-63
2023/09/15 10:25:20;;;;;;;4.25;2.20;;;;;;;19.09;50.84;100177.56;10499183;28;20431;-63
2023/09/15 10:30:23;;;;;;;5.38;1.98;;;;;;;19.04;51.45;100167.38;10502727;28;20404;-63
2023/09/15 10:35:26;;;;;;;5.65;2.65;;;;;;;19.08;51.30;100171.41;10503428;28;20062;-63
2023/09/15 10:40:49;;;;;;;3.88;1.92;;;;;;;19.26;50.26;100161.78;10504299;28;20040;-63
2023/09/15 10:46:03;;;;;;;4.45;2.08;;;;;;;19.38;50.54;100147.38;10500768;28;20116;-62
2023/09/15 10:51:06;;;;;;;5.30;2.42;;;;;;;19.31;51.53;100135.69;10502832;28;20047;-63
2023/09/15 10:56:08;;;;;;;5.90;2.10;;;;;;;19.51;51.01;100122.34;10496745;28;20466;-63
2023/09/15 11:01:14;;;;;;;3.13;1.70;;;;;;;19.41;51.34;100123.25;10479180;28;20121;-63
2023/09/15 11:06:18;;;;;;;3.13;1.80;;;;;;;19.46;51.68;100118.31;10458206;28;20085;-62
2023/09/15 11:11:21;;;;;;;4.82;2.08;;;;;;;19.57;51.54;100113.81;10501429;28;20051;-63
2023/09/15 11:16:27;;;;;;;5.78;1.88;;;;;;;19.64;51.26;100109.63;10494941;28;20048;-62
2023/09/15 11:21:33;;;;;;;11.15;2.75;;;;;;;19.64;51.32;100094.56;10497397;28;20040;-63
2023/09/15 11:26:35;;;;;;;4.00;1.73;;;;;;;19.96;51.50;100092.34;10473947;28;20056;-63
2023/09/15 11:31:38;;;;;;;3.40;1.95;;;;;;;20.13;50.84;100088.88;10495889;28;20691;-62
2023/09/15 11:36:41;;;;;;;2.67;1.58;;;;;;;20.37;50.98;100079.50;10488485;28;20052;-62
2023/09/15 11:41:53;;;;;;;3.10;1.75;;;;;;;20.69;50.84;100079.84;10496807;28;20126;-62
2023/09/15 11:46:58;;;;;;;4.20;1.70;;;;;;;21.02;50.73;100064.03;10490301;28;20036;-65
2023/09/15 11:52:00;;;;;;;6.72;1.80;;;;;;;21.05;50.11;100063.72;10491814;28;20058;-62
2023/09/15 11:57:02;;;;;;;3.22;1.75;;;;;;;21.06;50.23;100054.75;10498144;28;20066;-62
2023/09/15 12:02:05;;;;;;;3.42;1.83;;;;;;;21.19;49.67;100064.16;10489717;28;20040;-63
2023/09/15 12:07:07;;;;;;;4.32;1.90;;;;;;;21.33;49.71;100058.28;10499840;28;20319;-62
2023/09/15 12:12:15;;;;;;;4.43;1.60;;;;;;;21.56;48.69;100051.41;10509150;28;20063;-62
2023/09/15 12:17:17;;;;;;;3.42;1.73;;;;;;;21.83;49.12;100038.75;10491319;28;20050;-62
2023/09/15 12:22:29;;;;;;;4.40;1.70;;;;;;;22.09;48.35;100028.03;10512541;28;20359;-62
2023/09/15 12:27:34;;;;;;;3.20;1.70;;;;;;;22.12;49.47;100017.06;10509698;28;20186;-63
2023/09/15 12:32:37;;;;;;;4.22;2.30;;;;;;;22.39;49.08;100008.75;10509449;28;20040;-62
2023/09/15 12:37:44;;;;;;;3.58;2.00;;;;;;;22.26;47.54;100011.09;10509517;28;20055;-63
2023/09/15 12:42:46;;;;;;;3.65;1.58;;;;;;;22.42;47.63;100008.44;10510125;28;20111;-62
2023/09/15 12:47:48;;;;;;;5.30;1.90;;;;;;;22.85;48.60;99995.78;10471625;28;20322;-62
2023/09/15 12:52:51;;;;;;;2.72;1.67;;;;;;;22.85;48.13;99985.97;10512880;28;20127;-62
2023/09/15 12:57:53;;;;;;;4.20;1.67;;;;;;;22.90;46.95;99975.66;10486261;28;20867;-62
2023/09/15 13:02:55;;;;;;;3.58;1.50;;;;;;;22.84;47.01;99962.94;10508198;28;20063;-63
2023/09/15 13:07:57;;;;;;;3.90;1.38;;;;;;;22.96;46.67;99955.44;10504902;28;20044;-62
2023/09/15 13:12:59;;;;;;;4.00;1.70;;;;;;;23.11;45.49;99951.91;10505278;28;20044;-63
2023/09/15 13:18:02;;;;;;;2.45;1.42;;;;;;;23.09;43.82;99942.41;10496298;28;20085;-62
2023/09/15 13:23:04;;;;;;;2.38;1.38;;;;;;;23.25;43.89;99931.66;10501877;28;20067;-63
2023/09/15 13:28:06;;;;;;;3.08;1.42;;;;;;;23.49;43.12;99928.97;10500472;28;20056;-62
2023/09/15 13:33:08;;;;;;;2.28;1.27;;;;;;;23.55;40.96;99914.91;10504957;28;20635;-62
2023/09/15 13:38:15;;;;;;;3.78;1.40;;;;;;;23.56;41.87;99913.03;10478827;28;20051;-62
2023/09/15 13:43:18;;;;;;;2.60;1.40;;;;;;;23.48;41.31;99912.09;10482350;28;20059;-62
2023/09/15 13:48:20;;;;;;;2.90;1.30;;;;;;;23.46;39.59;99899.94;10498620;28;20043;-62
2023/09/15 13:53:22;;;;;;;1.95;1.23;;;;;;;23.57;39.91;99902.22;10480825;28;20047;-62
2023/09/15 13:58:25;;;;;;;2.15;1.38;;;;;;;23.60;39.81;99898.34;10484845;28;20590;-62
2023/09/15 14:03:28;;;;;;;2.17;1.25;;;;;;;23.82;40.18;99887.69;10482879;28;20051;-62
2023/09/15 14:08:31;;;;;;;2.22;1.20;;;;;;;23.95;39.42;99893.28;10504443;28;20162;-62
2023/09/15 14:13:34;;;;;;;2.65;1.17;;;;;;;23.90;39.22;99879.63;10486177;28;21154;-62
2023/09/15 14:18:36;;;;;;;3.10;1.48;;;;;;;24.02;39.10;99877.38;10518818;28;20150;-62
2023/09/15 14:23:38;;;;;;;5.05;1.77;;;;;;;24.17;39.09;99867.56;10502443;28;20488;-62
2023/09/15 14:28:40;;;;;;;3.13;1.70;;;;;;;24.27;39.11;99863.66;10506361;28;20565;-62
2023/09/15 14:33:42;;;;;;;2.15;1.13;;;;;;;24.22;38.24;99862.53;10503489;28;20044;-62
2023/09/15 14:38:44;;;;;;;2.25;1.15;;;;;;;24.33;37.98;99863.94;10504250;28;20082;-63
2023/09/15 14:43:47;;;;;;;2.38;1.13;;;;;;;24.40;38.12;99865.72;10518194;28;20496;-62
2023/09/15 14:48:49;;;;;;;3.45;1.23;;;;;;;24.37;37.83;99875.94;10505062;28;20054;-62
2023/09/15 14:53:52;;;;;;;1.92;1.13;;;;;;;24.49;37.38;99863.78;10502555;28;20036;-62
2023/09/15 14:58:55;;;;;;;1.65;1.08;;;;;;;24.47;37.36;99860.47;10504057;28;20052;-62
2023/09/15 15:03:57;;;;;;;3.60;1.23;;;;;;;24.53;37.82;99855.19;10483888;28;20047;-62
2023/09/15 15:08:59;;;;;;;2.38;1.30;;;;;;;24.51;37.21;99857.22;10484521;28;20193;-62
2023/09/15 15:14:01;;;;;;;2.35;1.38;;;;;;;24.46;38.27;99845.44;10498648;28;20567;-63
2023/09/15 15:19:04;;;;;;;2.00;1.17;;;;;;;24.40;38.10;99843.50;10484936;28;20098;-62
2023/09/15 15:24:08;;;;;;;1.77;1.20;;;;;;;24.32;38.27;99827.53;10492791;28;20416;-62
2023/09/15 15:29:10;;;;;;;2.03;1.10;;;;;;;24.29;37.72;99826.88;10502662;28;20265;-62
2023/09/15 15:34:12;;;;;;;1.83;1.15;;;;;;;24.03;39.04;99826.44;10493888;28;20078;-64
2023/09/15 15:39:15;;;;;;;1.85;1.10;;;;;;;23.92;38.99;99826.84;10507124;28;20101;-62
2023/09/15 15:44:17;;;;;;;2.20;1.20;;;;;;;24.15;39.33;99822.34;10504037;28;20063;-61
2023/09/15 15:49:19;;;;;;;1.80;1.30;;;;;;;24.14;38.19;99823.34;10530111;28;20052;-62
2023/09/15 15:54:21;;;;;;;4.45;1.98;;;;;;;24.06;38.77;99825.25;10511582;28;20051;-62
2023/09/15 15:59:23;;;;;;;4.55;2.15;;;;;;;24.01;38.89;99824.94;10515509;28;20097;-61
2023/09/15 16:04:25;;;;;;;9.60;3.08;;;;;;;23.96;39.14;99825.47;10509870;28;20222;-62
2023/09/15 16:09:30;;;;;;;6.05;2.55;;;;;;;23.79;38.91;99826.63;10511196;28;20289;-62
2023/09/15 16:14:40;;;;;;;4.85;2.00;;;;;;;23.58;39.43;99820.25;10506578;28;20062;-62
2023/09/15 16:19:42;;;;;;;5.47;2.00;;;;;;;23.39;39.94;99821.53;10513124;28;20147;-62
2023/09/15 16:24:44;;;;;;;22.90;4.88;;;;;;;23.30;40.35;99819.91;10505923;28;20048;-62
2023/09/15 16:29:48;;;;;;;13.70;3.88;;;;;;;23.23;40.96;99826.94;10511052;28;20067;-62
2023/09/15 16:34:50;;;;;;;6.25;2.67;;;;;;;23.12;42.04;99828.19;10510003;28;20093;-62
2023/09/15 16:39:53;;;;;;;5.05;2.40;;;;;;;23.01;42.54;99830.38;10513780;28;20044;-62
2023/09/15 16:44:55;;;;;;;19.30;5.25;;;;;;;22.75;43.16;99832.50;10509799;28;20211;-62
2023/09/15 16:49:57;;;;;;;19.52;5.43;;;;;;;22.45;44.21;99832.19;10512659;28;20067;-62
2023/09/15 16:54:59;;;;;;;16.92;5.05;;;;;;;22.25;44.48;99833.56;10504830;28;20051;-62
2023/09/15 17:00:01;;;;;;;12.27;3.95;;;;;;;22.09;45.47;99830.09;10494675;28;20047;-62
2023/09/15 17:05:05;;;;;;;5.32;2.40;;;;;;;21.84;45.90;99818.59;10501233;28;20048;-62
2023/09/15 17:10:13;;;;;;;2.65;1.58;;;;;;;21.53;46.71;99826.38;10509982;28;20070;-62
2023/09/15 17:15:16;;;;;;;5.38;2.05;;;;;;;21.05;48.18;99828.84;10505555;28;20514;-62
2023/09/15 17:20:18;;;;;;;3.20;1.75;;;;;;;20.93;48.36;99825.66;10507971;28;20129;-62
2023/09/15 17:25:20;;;;;;;4.00;2.00;;;;;;;20.85;48.63;99824.78;10496119;28;20044;-63
2023/09/15 17:30:22;;;;;;;3.67;1.77;;;;;;;20.67;49.10;99832.00;10484439;28;20052;-63
2023/09/15 17:35:24;;;;;;;3.90;2.08;;;;;;;20.45;49.71;99835.19;10501336;28;20307;-62
2023/09/15 17:40:26;;;;;;;3.45;1.90;;;;;;;20.34;50.32;99830.16;10501289;28;20270;-62
2023/09/15 17:45:29;;;;;;;3.67;1.83;;;;;;;20.12;50.22;99828.81;10499010;28;20885;-62
2023/09/15 17:50:31;;;;;;;3.60;1.83;;;;;;;19.96;51.00;99818.06;10503239;28;20076;-63
2023/09/15 17:55:33;;;;;;;3.92;1.67;;;;;;;19.89;51.05;99827.63;10502142;28;20100;-62
2023/09/15 18:00:35;;;;;;;3.88;2.00;;;;;;;19.66;51.83;99821.94;10500132;28;20107;-62
2023/09/15 18:05:37;;;;;;;7.30;1.83;;;;;;;19.57;52.20;99828.16;10503432;28;20047;-62
2023/09/15 18:10:39;;;;;;;3.65;1.98;;;;;;;19.43;52.08;99821.56;10488897;28;20044;-62
2023/09/15 18:15:42;;;;;;;4.25;2.15;;;;;;;19.35;52.90;99837.38;10508363;28;20854;-62
2023/09/15 18:20:44;;;;;;;5.18;2.10;;;;;;;19.22;52.93;99836.06;10509234;28;20126;-61
2023/09/15 18:25:46;;;;;;;3.47;1.88;;;;;;;19.13;53.65;99847.56;10466370;28;20163;-62
2023/09/15 18:30:48;;;;;;;4.68;1.95;;;;;;;19.02;53.97;99843.28;10498354;28;20062;-62
2023/09/15 18:35:50;;;;;;;3.08;1.77;;;;;;;18.96;54.12;99848.31;10499785;28;20160;-62
2023/09/15 18:40:53;;;;;;;6.30;2.03;;;;;;;18.83;54.77;99845.97;10501487;28;20059;-62
2023/09/15 18:45:55;;;;;;;5.10;2.00;;;;;;;18.65;55.17;99845.94;10501050;28;20374;-62
2023/09/15 18:50:58;;;;;;;4.40;1.88;;;;;;;18.46;55.46;99853.91;10482525;28;20377;-62
2023/09/15 18:56:00;;;;;;;4.78;2.20;;;;;;;18.32;56.16;99864.16;10505043;28;20454;-62
2023/09/15 19:01:03;;;;;;;3.45;1.90;;;;;;;18.28;56.03;99858.28;10503856;28;20052;-62
2023/09/15 19:06:05;;;;;;;3.05;1.90;;;;;;;18.19;56.38;99859.16;10486129;28;20039;-62
2023/09/15 19:11:08;;;;;;;2.70;1.65;;;;;;;18.03;56.73;99863.31;10501353;28;20487;-62
2023/09/15 19:16:14;;;;;;;4.28;2.20;;;;;;;17.82;57.30;99859.00;10504577;28;20070;-62
2023/09/15 19:21:24;;;;;;;4.28;2.10;;;;;;;17.75;57.61;99865.81;10486509;28;20097;-62
2023/09/15 19:26:26;;;;;;;3.42;1.92;;;;;;;17.70;57.67;99846.91;10501786;28;20055;-62
2023/09/15 19:31:28;;;;;;;3.17;1.95;;;;;;;17.64;58.15;99852.72;10469151;28;20046;-61
2023/09/15 19:36:31;;;;;;;4.45;2.35;;;;;;;17.68;57.90;99848.84;10504008;28;20295;-62
2023/09/15 19:41:33;;;;;;;3.72;1.90;;;;;;;17.47;58.05;99855.19;10481734;28;20051;-62
2023/09/15 19:46:36;;;;;;;5.68;2.10;;;;;;;17.32;58.60;99848.63;10484048;28;20051;-62
2023/09/15 19:51:38;;;;;;;4.32;1.75;;;;;;;17.22;58.79;99847.78;10502796;28;20502;-62
2023/09/15 19:56:41;;;;;;;2.92;1.63;;;;;;;17.08;59.28;99848.97;10502502;28;20510;-61
2023/09/15 20:01:43;;;;;;;3.75;1.63;;;;;;;17.13;59.48;99840.63;10500642;28;20047;-62
2023/09/15 20:06:45;;;;;;;4.15;2.20;;;;;;;17.15;59.61;99847.47;10502222;28;20148;-62
2023/09/15 20:11:48;;;;;;;4.13;1.80;;;;;;;17.06;59.59;99840.34;10500215;28;20039;-62
2023/09/15 20:16:58;;;;;;;4.82;2.00;;;;;;;16.87;60.85;99835.00;10482934;28;20122;-62
2023/09/15 20:22:01;;;;;;;4.45;2.10;;;;;;;16.83;60.44;99839.69;10502131;28;20126;-62
2023/09/15 20:27:03;;;;;;;5.30;2.72;;;;;;;16.85;60.52;99848.31;10502582;28;20077;-62
2023/09/15 20:32:05;;;;;;;6.57;2.58;;;;;;;16.83;60.63;99857.38;10503326;28;20040;-62
2023/09/15 20:37:07;;;;;;;4.63;2.20;;;;;;;16.52;61.18;99845.13;10492762;28;20504;-62
2023/09/15 20:42:10;;;;;;;3.60;2.17;;;;;;;16.54;61.26;99851.13;10508083;28;20048;-62
2023/09/15 20:47:13;;;;;;;5.65;2.08;;;;;;;16.52;61.35;99847.78;10509560;28;20075;-62
2023/09/15 20:52:15;;;;;;;3.92;1.90;;;;;;;16.45;61.07;99855.38;10510376;28;20048;-61
2023/09/15 20:57:18;;;;;;;3.65;1.90;;;;;;;16.43;61.56;99859.06;10511556;28;20447;-61
2023/09/15 21:02:20;;;;;;;3.63;1.88;;;;;;;16.41;61.46;99859.19;10484801;28;20043;-62
2023/09/15 21:07:22;;;;;;;4.10;2.00;;;;;;;16.37;61.66;99857.78;10491470;28;20412;-61
2023/09/15 21:12:24;;;;;;;6.60;1.83;;;;;;;16.31;61.75;99853.03;10523760;28;20067;-62
2023/09/15 21:17:26;;;;;;;4.55;2.00;;;;;;;16.15;61.92;99858.78;10492643;28;20416;-62
2023/09/15 21:22:28;;;;;;;3.90;2.15;;;;;;;16.05;62.00;99852.59;10490131;28;20054;-62
2023/09/15 21:27:30;;;;;;;3.42;1.77;;;;;;;15.82;62.62;99853.66;10487316;28;20056;-62
2023/09/15 21:32:32;;;;;;;10.32;2.45;;;;;;;15.84;62.69;99856.16;10509508;28;20056;-62
2023/09/15 21:37:34;;;;;;;3.13;1.63;;;;;;;15.90;62.57;99855.66;10490823;28;20082;-62
2023/09/15 21:42:36;;;;;;;3.63;2.15;;;;;;;15.75;62.75;99852.50;10508624;28;20414;-62
2023/09/15 21:47:38;;;;;;;4.65;2.05;;;;;;;15.54;62.92;99840.22;10508205;28;20056;-61
2023/09/15 21:52:41;;;;;;;3.72;1.85;;;;;;;15.49;63.31;99843.22;10509111;28;20496;-61
2023/09/15 21:57:43;;;;;;;7.65;2.38;;;;;;;15.49;63.52;99843.22;10508485;28;20048;-61
2023/09/15 22:02:47;;;;;;;7.13;2.15;;;;;;;15.58;63.52;99836.38;10526585;28;20446;-61
2023/09/15 22:07:50;;;;;;;6.60;2.22;;;;;;;15.55;63.56;99836.63;10510971;28;20048;-61
2023/09/15 22:12:52;;;;;;;3.08;1.70;;;;;;;15.38;63.67;99819.53;10491166;28;20047;-62
2023/09/15 22:17:54;;;;;;;2.78;1.60;;;;;;;15.21;63.63;99830.56;10511667;28;20040;-62
2023/09/15 22:22:56;;;;;;;3.13;1.73;;;;;;;15.13;63.83;99822.44;10511012;28;20067;-61
2023/09/15 22:27:58;;;;;;;3.78;2.03;;;;;;;15.20;64.01;99815.75;10508488;28;20079;-61
2023/09/15 22:33:02;;;;;;;3.60;1.83;;;;;;;15.29;63.86;99810.56;10505758;28;20063;-61
2023/09/15 22:38:04;;;;;;;3.65;2.20;;;;;;;15.33;63.91;99816.41;10488754;28;20135;-61
2023/09/15 22:43:08;;;;;;;3.90;1.80;;;;;;;15.27;63.96;99807.22;10506663;28;20050;-61
2023/09/15 22:48:12;;;;;;;5.28;1.83;;;;;;;15.28;63.89;99810.69;10506581;28;20128;-61
2023/09/15 22:53:17;;;;;;;5.43;2.22;;;;;;;15.26;63.79;99800.28;10505987;28;20071;-61
2023/09/15 22:58:19;;;;;;;6.22;2.30;;;;;;;15.25;64.13;99792.50;10505298;28;20043;-61
2023/09/15 23:03:20;;;;;;;4.50;2.00;;;;;;;15.25;64.36;99787.22;10505631;28;20051;-62
2023/09/15 23:08:23;;;;;;;5.97;2.00;;;;;;;15.21;64.31;99794.53;10487659;28;20590;-61
2023/09/15 23:13:25;;;;;;;4.30;2.03;;;;;;;15.08;64.05;99791.22;10483601;28;20472;-61
2023/09/15 23:18:27;;;;;;;4.07;2.40;;;;;;;14.99;64.24;99797.22;10505950;28;20233;-61
2023/09/15 23:23:29;;;;;;;3.58;2.00;;;;;;;15.12;64.17;99789.19;10505911;28;20060;-61
2023/09/15 23:28:31;;;;;;;6.13;2.15;;;;;;;15.11;64.23;99793.63;10503647;28;20210;-61
2023/09/15 23:33:34;;;;;;;4.05;1.98;;;;;;;15.06;64.32;99792.31;10486286;28;20056;-61